createdAt,value
2022-08-05T00:01:35.691Z,8.20
2022-08-05T00:04:05.095Z,8.45
2022-08-05T00:06:36.140Z,5.68
2022-08-05T00:09:04.881Z,8.82
2022-08-05T00:11:40.371Z,9.77
2022-08-05T00:14:17.251Z,9.10
2022-08-05T00:16:53.683Z,8.07
2022-08-05T00:19:23.294Z,6.80
2022-08-05T00:21:54.058Z,7.40
2022-08-05T00:24:24.517Z,7.28
2022-08-05T00:26:53.127Z,6.90
2022-08-05T00:29:22.809Z,9.15
2022-08-05T00:32:13.385Z,8.20
2022-08-05T00:34:54.966Z,8.05
2022-08-05T00:37:51.002Z,7.22
2022-08-05T00:40:17.941Z,10.82
2022-08-05T00:42:55.765Z,12.77
2022-08-05T00:45:38.057Z,10.40
2022-08-05T00:48:08.176Z,9.68
2022-08-05T00:50:36.493Z,11.02
2022-08-05T00:53:09.609Z,9.07
2022-08-05T00:55:51.409Z,9.25
2022-08-05T00:58:19.362Z,9.02
2022-08-05T01:00:47.800Z,9.50
2022-08-05T01:03:22.558Z,14.07
2022-08-05T01:05:51.755Z,10.95
2022-08-05T01:08:40.112Z,7.82
2022-08-05T01:11:22.277Z,10.05
2022-08-05T01:14:00.035Z,9.00
2022-08-05T01:16:59.328Z,10.27
2022-08-05T01:20:00.815Z,10.05
2022-08-05T01:23:23.199Z,11.63
2022-08-05T01:26:16.406Z,10.05
2022-08-05T01:28:48.641Z,12.18
2022-08-05T01:31:45.160Z,7.97
2022-08-05T01:34:29.037Z,9.38
2022-08-05T01:37:07.811Z,8.35
2022-08-05T01:39:46.018Z,10.43
2022-08-05T01:42:19.321Z,10.93
2022-08-05T01:44:54.234Z,9.30
2022-08-05T01:47:24.254Z,9.25
2022-08-05T01:50:02.839Z,7.80
2022-08-05T01:52:34.588Z,10.45
2022-08-05T01:55:10.079Z,10.68
2022-08-05T01:58:11.776Z,12.30
2022-08-05T02:00:35.034Z,9.70
2022-08-05T02:03:33.924Z,9.05
2022-08-05T02:06:23.995Z,8.90
2022-08-05T02:08:58.327Z,9.75
2022-08-05T02:11:33.970Z,8.57
2022-08-05T02:14:19.613Z,6.80
2022-08-05T02:16:56.069Z,8.60
2022-08-05T02:19:35.114Z,11.13
2022-08-05T02:22:26.367Z,11.60
2022-08-05T02:25:05.535Z,10.82
2022-08-05T02:27:59.539Z,9.48
2022-08-05T02:30:51.878Z,8.32
2022-08-05T02:33:24.314Z,9.90
2022-08-05T02:36:05.082Z,8.68
2022-08-05T02:38:35.374Z,9.27
2022-08-05T02:41:14.549Z,11.13
2022-08-05T02:44:05.863Z,7.95
2022-08-05T02:46:53.414Z,8.65
2022-08-05T02:49:35.899Z,9.82
2022-08-05T02:52:11.542Z,9.25
2022-08-05T02:54:52.071Z,9.93
2022-08-05T02:58:09.653Z,9.90
2022-08-05T03:00:11.632Z,10.68
2022-08-05T03:02:42.847Z,12.30
2022-08-05T03:05:13.690Z,9.48
2022-08-05T03:08:04.384Z,11.85
2022-08-05T03:10:29.340Z,10.73
2022-08-05T03:15:23.694Z,9.15
2022-08-05T03:17:54.257Z,9.90
2022-08-05T03:20:24.253Z,9.48
2022-08-05T03:22:52.447Z,11.23
2022-08-05T03:25:32.786Z,10.77
2022-08-05T03:28:06.881Z,14.10
2022-08-05T03:30:36.624Z,12.48
2022-08-05T03:33:05.744Z,12.85
2022-08-05T03:35:41.256Z,11.80
2022-08-05T03:38:12.083Z,12.82
2022-08-05T03:40:45.058Z,14.95
2022-08-05T03:43:58.241Z,13.50
2022-08-05T03:46:01.845Z,15.07
2022-08-05T03:48:29.925Z,18.45
2022-08-05T03:52:36.468Z,15.63
2022-08-05T03:56:02.018Z,24.23
2022-08-05T03:57:16.567Z,19.42
2022-08-05T03:59:54.533Z,21.50
2022-08-05T04:02:37.787Z,20.50
2022-08-05T04:05:10.261Z,24.50
2022-08-05T04:07:57.797Z,8.75
2022-08-05T04:10:31.993Z,8.63
2022-08-05T04:13:03.431Z,4.50
2022-08-05T04:15:33.358Z,11.05
2022-08-05T04:18:07.957Z,6.78
2022-08-05T04:20:37.494Z,6.47
2022-08-05T04:23:04.627Z,11.52
2022-08-05T04:25:57.689Z,26.88
2022-08-05T04:28:28.480Z,16.60
2022-08-05T04:31:00.963Z,17.60
2022-08-05T04:33:54.489Z,106.95
2022-08-05T04:36:49.381Z,66.18
2022-08-05T04:39:03.013Z,247.30
2022-08-05T04:41:37.789Z,127.72
2022-08-05T04:44:09.491Z,97.10
2022-08-05T04:46:38.227Z,130.10
2022-08-05T04:49:14.424Z,95.40
2022-08-05T04:51:43.905Z,206.70
2022-08-05T04:54:12.041Z,93.88
2022-08-05T04:56:39.436Z,66.28
2022-08-05T04:59:22.009Z,172.40
2022-08-05T05:02:07.853Z,184.13
2022-08-05T05:04:47.619Z,53.00
2022-08-05T05:07:17.451Z,54.22
2022-08-05T05:09:45.545Z,55.53
2022-08-05T05:12:12.605Z,51.60
2022-08-05T05:14:50.789Z,42.22
2022-08-05T05:17:23.758Z,44.60
2022-08-05T05:19:55.105Z,55.15
2022-08-05T05:22:26.347Z,36.70
2022-08-05T05:25:00.119Z,64.03
2022-08-05T05:27:41.431Z,39.72
2022-08-05T05:30:30.974Z,65.28
2022-08-05T05:33:13.854Z,47.17
2022-08-05T05:35:48.184Z,51.38
2022-08-05T05:38:27.229Z,58.03
2022-08-05T05:40:58.175Z,61.42
2022-08-05T05:43:54.530Z,72.40
2022-08-05T05:46:17.564Z,73.22
2022-08-05T05:48:48.491Z,62.90
2022-08-05T05:51:25.961Z,88.15
2022-08-05T05:53:57.541Z,84.35
2022-08-05T05:56:33.675Z,62.03
2022-08-05T05:59:07.973Z,46.50
2022-08-05T06:01:40.138Z,49.22
2022-08-05T06:04:13.265Z,47.35
2022-08-05T06:06:47.439Z,47.75
2022-08-05T06:09:25.402Z,75.45
2022-08-05T06:12:01.401Z,44.35
2022-08-05T06:14:30.887Z,53.10
2022-08-05T06:16:58.609Z,71.75
2022-08-05T06:19:34.835Z,64.97
2022-08-05T06:22:07.506Z,63.22
2022-08-05T06:24:42.036Z,59.13
2022-08-05T06:28:09.062Z,54.17
2022-08-05T06:30:17.928Z,53.92
2022-08-05T06:32:47.029Z,65.32
2022-08-05T06:35:21.760Z,86.55
2022-08-05T06:38:04.253Z,63.03
2022-08-05T06:40:37.052Z,59.88
2022-08-05T06:43:57.926Z,60.67
2022-08-05T06:46:07.171Z,62.22
2022-08-05T06:48:52.536Z,58.65
2022-08-05T06:51:30.050Z,64.03
2022-08-05T06:54:03.296Z,58.22
2022-08-05T06:56:34.162Z,56.95
2022-08-05T06:59:03.570Z,62.10
2022-08-05T07:01:35.650Z,46.55
2022-08-05T07:04:03.786Z,49.83
2022-08-05T07:06:31.929Z,51.65
2022-08-05T07:08:59.403Z,54.35
2022-08-05T07:11:28.578Z,48.67
2022-08-05T07:14:20.319Z,47.40
2022-08-05T07:17:59.045Z,45.88
2022-08-05T07:20:31.369Z,52.17
2022-08-05T07:22:35.128Z,48.38
2022-08-05T07:25:53.887Z,49.42
2022-08-05T07:27:58.239Z,49.00
2022-08-05T07:30:34.542Z,50.40
2022-08-05T07:33:16.180Z,48.35
2022-08-05T07:36:01.747Z,53.60
2022-08-05T07:38:42.792Z,56.67
2022-08-05T07:41:35.093Z,60.20
2022-08-05T07:44:03.938Z,54.55
2022-08-05T07:46:33.825Z,53.13
2022-08-05T07:49:05.879Z,54.22
2022-08-05T07:51:48.719Z,56.60
2022-08-05T07:54:31.446Z,54.58
2022-08-05T07:57:41.997Z,58.35
2022-08-05T07:59:51.623Z,56.08
2022-08-05T08:02:26.593Z,64.65
2022-08-05T08:04:57.858Z,64.28
2022-08-05T08:07:25.267Z,64.50
2022-08-05T08:09:55.490Z,68.82
2022-08-05T08:12:37.518Z,63.40
2022-08-05T08:15:15.658Z,68.78
2022-08-05T08:17:50.585Z,72.10
2022-08-05T08:21:01.054Z,69.07
2022-08-05T08:24:00.273Z,72.53
2022-08-05T08:26:00.560Z,78.95
2022-08-05T08:28:37.122Z,85.28
2022-08-05T08:31:18.573Z,80.63
2022-08-05T08:33:46.939Z,79.75
2022-08-05T08:36:37.584Z,86.65
2022-08-05T08:39:07.019Z,84.35
2022-08-05T08:41:52.727Z,73.60
2022-08-05T08:45:17.715Z,85.78
2022-08-05T08:48:06.980Z,80.78
2022-08-05T08:50:29.966Z,74.13
2022-08-05T08:53:07.960Z,70.03
2022-08-05T08:56:03.041Z,71.82
2022-08-05T08:58:43.857Z,67.28
2022-08-05T09:01:16.569Z,63.20
2022-08-05T09:03:52.884Z,53.70
2022-08-05T09:06:29.409Z,52.47
2022-08-05T09:09:01.015Z,59.50
2022-08-05T09:11:51.638Z,54.58
2022-08-05T09:14:56.692Z,56.25
2022-08-05T09:17:08.235Z,54.72
2022-08-05T09:20:01.682Z,58.15
2022-08-05T09:22:31.979Z,61.42
2022-08-05T09:25:13.468Z,61.42
2022-08-05T09:28:04.633Z,62.72
2022-08-05T09:30:27.776Z,68.88
2022-08-05T09:33:02.324Z,68.57
2022-08-05T09:35:29.427Z,63.17
2022-08-05T09:38:12.871Z,65.25
2022-08-05T09:40:53.501Z,64.88
2022-08-05T09:43:40.604Z,64.05
2022-08-05T09:46:35.198Z,69.20
2022-08-05T09:49:19.026Z,61.00
2022-08-05T09:51:49.906Z,57.65
2022-08-05T09:54:29.576Z,63.00
2022-08-05T09:56:57.595Z,62.88
2022-08-05T09:59:27.672Z,62.45
2022-08-05T10:01:58.363Z,60.80
2022-08-05T10:04:38.477Z,49.85
2022-08-05T10:07:19.473Z,48.10
2022-08-05T10:10:04.363Z,48.30
2022-08-05T10:12:51.268Z,39.03
2022-08-05T10:15:36.273Z,36.72
2022-08-05T10:18:17.319Z,35.75
2022-08-05T10:20:52.679Z,34.03
2022-08-05T10:23:55.289Z,36.95
2022-08-05T10:26:13.809Z,33.97
2022-08-05T10:28:44.927Z,36.35
2022-08-05T10:32:52.274Z,35.30
2022-08-05T10:34:03.354Z,34.97
2022-08-05T10:36:30.763Z,35.25
2022-08-05T10:39:11.707Z,35.45
2022-08-05T10:42:11.742Z,32.67
2022-08-05T10:44:44.443Z,31.90
2022-08-05T10:47:27.028Z,29.52
2022-08-05T10:50:32.527Z,28.38
2022-08-05T10:53:01.034Z,25.20
2022-08-05T10:55:38.579Z,26.02
2022-08-05T10:58:18.041Z,23.50
2022-08-05T11:00:48.474Z,22.52
2022-08-05T11:03:25.169Z,20.67
2022-08-05T11:06:15.179Z,21.02
2022-08-05T11:09:10.858Z,12.30
2022-08-05T11:11:53.043Z,8.40
2022-08-05T11:18:07.436Z,3.78
2022-08-05T11:20:39.153Z,1.92
2022-08-05T11:23:33.046Z,2.55
2022-08-05T11:26:17.245Z,1.60
2022-08-05T11:29:11.741Z,1.80
2022-08-05T11:31:54.503Z,4.07
2022-08-05T11:34:38.599Z,2.33
2022-08-05T11:38:29.465Z,1.73
2022-08-05T11:39:55.470Z,2.95
2022-08-05T11:42:28.440Z,3.72
2022-08-05T11:45:03.641Z,3.58
2022-08-05T11:47:48.510Z,3.85
2022-08-05T11:50:16.137Z,4.00
2022-08-05T11:52:44.098Z,4.72
2022-08-05T11:55:15.837Z,3.40
2022-08-05T11:58:09.556Z,2.67
2022-08-05T12:00:38.200Z,2.30
2022-08-05T12:03:28.797Z,1.90
2022-08-05T12:06:06.491Z,1.58
2022-08-05T12:08:53.375Z,1.40
2022-08-05T12:11:40.236Z,1.40
2022-08-05T12:14:10.222Z,2.28
2022-08-05T12:16:41.332Z,1.30
2022-08-05T12:20:27.811Z,1.40
2022-08-05T12:22:01.794Z,1.30
2022-08-05T12:24:30.007Z,1.30
2022-08-05T12:26:57.013Z,1.40
2022-08-05T12:29:27.475Z,1.67
2022-08-05T12:31:57.608Z,1.85
2022-08-05T12:34:35.627Z,1.60
2022-08-05T12:37:21.645Z,1.45
2022-08-05T12:39:52.255Z,2.03
2022-08-05T12:42:25.332Z,2.92
2022-08-05T12:44:52.434Z,2.10
2022-08-05T12:47:31.076Z,2.97
2022-08-05T12:50:04.782Z,2.60
2022-08-05T12:52:39.072Z,5.03
2022-08-05T12:55:23.899Z,2.10
2022-08-05T12:58:49.408Z,5.60
2022-08-05T13:02:00.691Z,3.03
2022-08-05T13:03:41.823Z,2.40
2022-08-05T13:06:17.340Z,4.47
2022-08-05T13:08:52.027Z,2.63
2022-08-05T13:12:01.313Z,4.57
2022-08-05T13:14:36.269Z,4.53
2022-08-05T13:17:10.340Z,4.50
2022-08-05T13:19:51.950Z,2.42
2022-08-05T13:22:29.821Z,3.50
2022-08-05T13:25:00.798Z,3.90
2022-08-05T13:27:40.151Z,2.28
2022-08-05T13:30:35.221Z,2.05
2022-08-05T13:33:02.331Z,4.93
2022-08-05T13:35:43.143Z,4.50
2022-08-05T13:38:20.256Z,5.53
2022-08-05T13:40:59.915Z,4.30
2022-08-05T13:43:44.916Z,2.33
2022-08-05T13:46:14.909Z,3.30
2022-08-05T13:48:58.870Z,4.47
2022-08-05T13:51:40.078Z,3.28
2022-08-05T13:54:12.428Z,3.65
2022-08-05T13:56:50.532Z,3.63
2022-08-05T13:59:27.067Z,2.10
2022-08-05T14:01:58.699Z,1.58
2022-08-05T14:04:51.431Z,3.08
2022-08-05T14:07:26.237Z,3.25
2022-08-05T14:10:19.153Z,4.60
2022-08-05T14:12:57.160Z,3.65
2022-08-05T14:16:08.518Z,1.83
2022-08-05T14:18:17.797Z,2.70
2022-08-05T14:20:47.961Z,2.05
2022-08-05T14:23:25.053Z,3.20
2022-08-05T14:25:58.220Z,1.45
2022-08-05T14:28:30.152Z,4.25
2022-08-05T14:30:59.434Z,3.33
2022-08-05T14:33:56.515Z,2.08
2022-08-05T14:36:14.829Z,2.00
2022-08-05T14:38:42.021Z,3.63
2022-08-05T14:41:08.823Z,3.58
2022-08-05T14:43:59.106Z,3.85
2022-08-05T14:46:28.662Z,2.47
2022-08-05T14:49:03.481Z,2.63
2022-08-05T14:51:37.598Z,1.95
2022-08-05T14:54:28.785Z,3.15
2022-08-05T14:56:54.768Z,2.85
2022-08-05T14:59:22.303Z,3.28
2022-08-05T15:01:50.125Z,3.58
2022-08-05T15:04:22.368Z,2.65
2022-08-05T15:06:51.355Z,2.10
2022-08-05T15:09:52.588Z,3.30
2022-08-05T15:12:08.754Z,2.35
2022-08-05T15:14:48.171Z,3.33
2022-08-05T15:17:46.985Z,3.35
2022-08-05T15:20:18.630Z,2.92
2022-08-05T15:22:54.340Z,2.90
2022-08-05T15:25:51.169Z,3.42
2022-08-05T15:28:14.303Z,4.10
2022-08-05T15:30:43.420Z,3.22
2022-08-05T15:33:10.986Z,2.22
2022-08-05T15:35:45.493Z,3.67
2022-08-05T15:38:35.966Z,3.95
2022-08-05T15:41:22.059Z,2.85
2022-08-05T15:43:47.819Z,3.28
2022-08-05T15:46:14.725Z,3.53
2022-08-05T15:48:52.872Z,4.55
2022-08-05T15:52:12.568Z,2.38
2022-08-05T15:54:16.238Z,4.95
2022-08-05T15:56:43.498Z,4.40
2022-08-05T15:59:20.293Z,3.40
2022-08-05T16:01:53.255Z,4.00
2022-08-05T16:04:25.769Z,3.35
2022-08-05T16:06:56.593Z,4.60
2022-08-05T16:09:25.321Z,3.08
2022-08-05T16:11:54.270Z,2.90
2022-08-05T16:14:22.521Z,4.38
2022-08-05T16:16:50.006Z,4.45
2022-08-05T16:19:25.694Z,3.05
2022-08-05T16:22:04.869Z,3.17
2022-08-05T16:24:40.442Z,4.60
2022-08-05T16:27:09.191Z,6.15
2022-08-05T16:29:37.642Z,4.50
2022-08-05T16:32:06.547Z,4.78
2022-08-05T16:34:39.315Z,5.03
2022-08-05T16:38:00.340Z,4.00
2022-08-05T16:40:06.247Z,3.13
2022-08-05T16:42:35.444Z,2.05
2022-08-05T16:46:02.740Z,3.30
2022-08-05T16:47:54.889Z,2.97
2022-08-05T16:50:25.586Z,1.88
2022-08-05T16:52:52.764Z,4.03
2022-08-05T16:55:23.230Z,2.63
2022-08-05T16:58:00.514Z,2.25
2022-08-05T17:00:34.512Z,3.65
2022-08-05T17:03:19.515Z,2.70
2022-08-05T17:05:53.935Z,2.63
2022-08-05T17:08:33.439Z,3.20
2022-08-05T17:11:12.670Z,2.95
2022-08-05T17:13:45.274Z,2.83
2022-08-05T17:16:30.292Z,3.10
2022-08-05T17:18:59.419Z,2.20
2022-08-05T17:21:26.300Z,1.77
2022-08-05T17:24:19.338Z,2.42
2022-08-05T17:26:58.155Z,3.83
2022-08-05T17:29:34.064Z,2.30
2022-08-05T17:32:16.877Z,5.78
2022-08-05T17:34:48.143Z,3.25
2022-08-05T17:37:41.200Z,2.65
2022-08-05T17:40:14.101Z,1.70
2022-08-05T17:42:50.768Z,2.50
2022-08-05T17:45:24.935Z,2.30
2022-08-05T17:47:56.062Z,2.67
2022-08-05T17:50:30.539Z,3.50
2022-08-05T17:53:08.461Z,2.53
2022-08-05T17:55:39.360Z,3.80
2022-08-05T17:58:13.571Z,2.60
2022-08-05T18:00:47.560Z,2.40
2022-08-05T18:03:56.304Z,4.95
2022-08-05T18:06:12.225Z,3.75
2022-08-05T18:08:45.750Z,2.65
2022-08-05T18:11:24.278Z,3.60
2022-08-05T18:13:56.965Z,2.72
2022-08-05T18:16:26.413Z,3.00
2022-08-05T18:18:53.282Z,4.35
2022-08-05T18:21:22.793Z,2.47
2022-08-05T18:23:53.731Z,3.67
2022-08-05T18:26:27.557Z,4.63
2022-08-05T18:28:57.000Z,4.88
2022-08-05T18:31:24.551Z,4.10
2022-08-05T18:33:52.032Z,3.17
2022-08-05T18:36:19.501Z,2.30
2022-08-05T18:38:46.812Z,2.20
2022-08-05T18:41:55.147Z,5.57
2022-08-05T18:44:06.549Z,2.90
2022-08-05T18:46:34.851Z,2.53
2022-08-05T18:49:23.694Z,5.63
2022-08-05T18:52:16.299Z,3.85
2022-08-05T18:54:45.831Z,2.92
2022-08-05T18:57:15.360Z,2.50
2022-08-05T19:00:03.192Z,3.70
2022-08-05T19:02:29.483Z,2.00
2022-08-05T19:05:02.532Z,2.60
2022-08-05T19:07:50.331Z,2.83
2022-08-05T19:10:28.516Z,2.22
2022-08-05T19:12:57.215Z,1.67
2022-08-05T19:15:58.199Z,3.33
2022-08-05T19:18:22.209Z,1.83
2022-08-05T19:20:54.305Z,3.33
2022-08-05T19:24:05.722Z,1.15
2022-08-05T19:26:11.218Z,1.80
2022-08-05T19:28:43.447Z,2.80
2022-08-05T19:31:13.358Z,1.40
2022-08-05T19:33:48.387Z,2.58
2022-08-05T19:36:25.935Z,1.58
2022-08-05T19:39:00.798Z,3.78
2022-08-05T19:41:34.717Z,2.97
2022-08-05T19:44:15.653Z,4.30
2022-08-05T19:46:43.765Z,2.47
2022-08-05T19:49:12.556Z,1.48
2022-08-05T19:52:04.589Z,2.40
2022-08-05T19:54:31.892Z,3.10
2022-08-05T19:57:06.479Z,4.57
2022-08-05T19:59:54.539Z,3.28
2022-08-05T20:02:30.258Z,5.10
2022-08-05T20:04:59.613Z,1.70
2022-08-05T20:07:47.086Z,3.17
2022-08-05T20:10:17.071Z,4.70
2022-08-05T20:12:47.696Z,4.07
2022-08-05T20:15:48.407Z,1.30
2022-08-05T20:18:10.819Z,2.30
2022-08-05T20:20:56.926Z,3.28
2022-08-05T20:23:40.306Z,1.48
2022-08-05T20:26:17.366Z,5.15
2022-08-05T20:28:48.324Z,4.63
2022-08-05T20:31:16.500Z,4.20
2022-08-05T20:33:44.988Z,3.45
2022-08-05T20:36:16.104Z,2.67
2022-08-05T20:38:53.329Z,2.58
2022-08-05T20:41:24.127Z,1.52
2022-08-05T20:43:58.789Z,7.15
2022-08-05T20:46:27.386Z,2.75
2022-08-05T20:48:54.725Z,2.97
2022-08-05T20:51:21.826Z,2.67
2022-08-05T20:53:56.452Z,1.52
2022-08-05T20:56:32.977Z,3.40
2022-08-05T20:59:11.216Z,4.25
2022-08-05T21:01:47.224Z,3.35
2022-08-05T21:04:14.272Z,1.80
2022-08-05T21:06:45.768Z,1.85
2022-08-05T21:09:15.055Z,3.03
2022-08-05T21:12:10.832Z,2.35
2022-08-05T21:14:35.093Z,3.53
2022-08-05T21:17:06.177Z,2.45
2022-08-05T21:19:46.369Z,2.67
2022-08-05T21:22:18.443Z,3.08
2022-08-05T21:24:48.895Z,2.17
2022-08-05T21:27:20.596Z,3.22
2022-08-05T21:29:54.005Z,3.58
2022-08-05T21:32:27.563Z,3.30
2022-08-05T21:35:16.708Z,3.28
2022-08-05T21:37:53.035Z,3.47
2022-08-05T21:40:24.982Z,3.88
2022-08-05T21:42:53.754Z,3.53
2022-08-05T21:45:25.001Z,3.17
2022-08-05T21:48:09.209Z,2.60
2022-08-05T21:50:37.332Z,1.90
2022-08-05T21:53:16.454Z,2.80
2022-08-05T21:56:04.980Z,4.60
2022-08-05T21:58:32.437Z,5.00
2022-08-05T22:01:00.427Z,4.22
2022-08-05T22:03:49.016Z,2.72
2022-08-05T22:06:16.139Z,3.17
2022-08-05T22:08:52.130Z,3.03
2022-08-05T22:11:34.760Z,2.00
2022-08-05T22:14:37.195Z,3.00
2022-08-05T22:16:56.966Z,2.97
2022-08-05T22:20:02.226Z,3.33
2022-08-05T22:22:12.737Z,2.50
2022-08-05T22:25:00.815Z,3.88
2022-08-05T22:28:08.327Z,2.65
2022-08-05T22:30:35.071Z,2.25
2022-08-05T22:33:15.912Z,3.50
2022-08-05T22:35:48.730Z,2.70
2022-08-05T22:38:17.037Z,3.58
2022-08-05T22:40:49.469Z,3.15
2022-08-05T22:43:36.771Z,4.18
2022-08-05T22:46:12.070Z,6.25
2022-08-05T22:48:41.877Z,6.32
2022-08-05T22:51:15.923Z,4.35
2022-08-05T22:53:50.792Z,4.65
2022-08-05T22:56:30.261Z,3.38
2022-08-05T22:59:03.118Z,4.10
2022-08-05T23:02:04.881Z,3.08
2022-08-05T23:04:18.661Z,2.80
2022-08-05T23:06:46.148Z,2.53
2022-08-05T23:09:27.941Z,4.70
2022-08-05T23:12:02.231Z,4.22
2022-08-05T23:14:31.783Z,2.72
2022-08-05T23:17:24.187Z,4.38
2022-08-05T23:19:58.856Z,3.92
2022-08-05T23:22:27.883Z,2.97
2022-08-05T23:24:55.783Z,4.53
2022-08-05T23:27:22.884Z,3.58
2022-08-05T23:29:50.991Z,6.53
2022-08-05T23:32:22.854Z,6.78
2022-08-05T23:34:50.803Z,3.00
2022-08-05T23:37:18.274Z,4.63
2022-08-05T23:39:54.544Z,2.95
2022-08-05T23:42:28.955Z,5.63
2022-08-05T23:44:56.405Z,5.32
2022-08-05T23:47:25.151Z,3.67
2022-08-05T23:49:55.718Z,2.95
2022-08-05T23:52:26.703Z,4.30
2022-08-05T23:54:57.028Z,3.47
2022-08-05T23:57:28.303Z,4.75
